首页
METAR-TAF:

METAR-TAF

机场 :

Savannah/Hilton Head International Airport

薩凡納, 喬治亞, 美国

纬度: 32-07-08N, 经度: 081-12-08W, 海拔: 15米

当前天气观测

该预报发布于19分钟前的16:53 UTC
风速9节,风向西转西南
温度 31°C
湿度 59%
气压 1017 hPa
能見度: 16.1公里
散云层高于3600英尺
多云层高于9000英尺
多云层高于25000英尺

METAR: KSAV 051653Z 25009KT 10SM SCT036 BKN090 BKN250 31/22 A3002 RMK AO2 SLP164 T03060217

时间: 13:12 (17:12 UTC)

预报

该预报发布于5小时和51分钟前的11:21 UTC
预报有效从05日的 12点(UTC)到 06日的 12点(UTC)
风速6节,风向西转西南
能見度: 10公里
散云层高于4000英尺
多云层高于10000英尺
从 05日的 2100点(UTC)
风速9节,风向南转西南
能見度: 10公里
少量云层高于5000英尺
多云层高于25000英尺
从 06日的 0200点(UTC)
风速7节,风向西南
能見度: 10公里
多云层高于25000英尺

TAF: KSAV 051121Z 0512/0612 24006KT P6SM SCT040 BKN100 FM052100 20009KT P6SM FEW050 BKN250 FM060200 22007KT P6SM BKN250

超过4000个机场的气象观测和天气预报(METAR&TAF报告)。

可查询的气象台以黄色和红色小点在地图上表示。

将鼠标移到小点上方,可查看气象台名称。

然后点击查看天气观测和预报。

如需切换地图:点击带黑十字的绿色按钮放大地图;点击带横线的绿色按钮缩小地图;或者点击绿色箭头查看邻近地区的地图。


METAR-TAF: